Main page
METAR-TAF:

METAR-TAF

Airports :

Ardmore Downtown Executive Airport

Ardmore, Oklahoma, United States

latitude: 34-08-49N, longitude: 097-07-21W, elevation: 843 ft

Current weather observation

The report was made 33 minutes ago, at 16:35 UTC
Wind 7 mph from the East/Southeast
Temperature 82°F
Humidity 66%
Pressure 30.13 in. Hg
Visibility: 10 miles
Scattered clouds at a height of 2700 ft
Scattered clouds at a height of 3500 ft
Broken clouds at a height of 12000 ft

METAR: K1F0 191635Z AUTO 12006KT 10SM SCT027 SCT035 BKN120 28/21 A3013 RMK AO2 T02790207

Time: 12:08 (17:08 UTC)


TAF: missing

Weather observations and forecasts of more than 4000 airports (METAR and TAF reports).

The available stations are represented by yellow and red dots on the map.

Hover mouse over dot to see the name of the station.

Then click to see weather observations and forecasts.

To change the map : click on the green buttons with a black cross to zoom in, on the green button with a dash to zoom out, or on the green arrows for adjacent maps.


METAR-TAF: